createdAt,value
2016-06-16T00:00:46.600Z,15.17
2016-06-16T00:01:46.713Z,15.21
2016-06-16T00:02:46.716Z,15.21
2016-06-16T00:03:46.719Z,15.26
2016-06-16T00:04:46.768Z,15.19
2016-06-16T00:05:46.802Z,15.13
2016-06-16T00:06:46.837Z,15.13
2016-06-16T00:07:46.887Z,15.17
2016-06-16T00:08:46.921Z,15.15
2016-06-16T00:09:47.112Z,15.23
2016-06-16T00:10:47.912Z,15.19
2016-06-16T00:11:47.040Z,15.17
2016-06-16T00:12:47.090Z,15.2
2016-06-16T00:13:47.156Z,15.15
2016-06-16T00:14:47.205Z,15.17
2016-06-16T00:15:47.208Z,15.15
2016-06-16T00:16:47.243Z,15.13
2016-06-16T00:17:47.293Z,15.09
2016-06-16T00:18:47.389Z,15.15
2016-06-16T00:19:47.424Z,15.2
2016-06-16T00:20:47.396Z,15.08
2016-06-16T00:21:47.461Z,15.12
2016-06-16T00:22:47.511Z,15.06
2016-06-16T00:23:47.530Z,15.08
2016-06-16T00:24:47.627Z,14.99
2016-06-16T00:25:47.864Z,15.05
2016-06-16T00:26:47.664Z,15.05
2016-06-16T00:27:47.683Z,14.93
2016-06-16T00:28:47.732Z,14.91
2016-06-16T00:29:47.829Z,15.01
2016-06-16T00:30:47.818Z,15.01
2016-06-16T00:31:48.086Z,15.02
2016-06-16T00:32:47.886Z,14.93
2016-06-16T00:33:48.060Z,14.94
2016-06-16T00:34:47.986Z,14.94
2016-06-16T00:35:48.020Z,14.98
2016-06-16T00:36:48.070Z,14.94
2016-06-16T00:37:48.120Z,14.87
2016-06-16T00:38:48.138Z,14.99
2016-06-16T00:39:48.173Z,14.81
2016-06-16T00:40:48.316Z,14.91
2016-06-16T00:41:48.367Z,14.91
2016-06-16T00:42:48.291Z,14.83
2016-06-16T00:43:48.325Z,14.87
2016-06-16T00:44:48.392Z,14.81
2016-06-16T00:45:48.442Z,14.83
2016-06-16T00:46:48.897Z,14.78
2016-06-16T00:47:48.870Z,14.71
2016-06-16T00:48:48.919Z,14.71
2016-06-16T00:49:48.579Z,14.69
2016-06-16T00:50:49.004Z,14.74
2016-06-16T00:51:49.100Z,14.71
2016-06-16T00:52:49.103Z,14.71
2016-06-16T00:53:49.044Z,14.71
2016-06-16T00:54:48.906Z,14.71
2016-06-16T00:55:49.176Z,14.71
2016-06-16T00:56:49.412Z,14.83
2016-06-16T00:57:48.901Z,14.64
2016-06-16T00:58:49.341Z,14.71
2016-06-16T00:59:49.407Z,14.71
2016-06-16T01:00:49.409Z,14.68
2016-06-16T01:01:49.241Z,14.67
2016-06-16T01:02:49.103Z,14.64
2016-06-16T01:03:49.184Z,14.64
2016-06-16T01:04:49.203Z,14.67
2016-06-16T01:05:49.081Z,14.69
2016-06-16T01:06:49.256Z,14.65
2016-06-16T01:07:49.337Z,14.69
2016-06-16T01:08:49.435Z,14.65
2016-06-16T01:09:49.437Z,14.67
2016-06-16T01:10:49.534Z,14.65
2016-06-16T01:11:49.522Z,14.65
2016-06-16T01:12:49.650Z,14.68
2016-06-16T01:13:49.542Z,14.64
2016-06-16T01:14:49.656Z,14.62
2016-06-16T01:15:49.643Z,14.61
2016-06-16T01:16:49.662Z,14.57
2016-06-16T01:17:49.712Z,14.6
2016-06-16T01:18:49.746Z,14.54
2016-06-16T01:19:49.780Z,14.5
2016-06-16T01:20:49.815Z,14.52
2016-06-16T01:21:49.864Z,14.52
2016-06-16T01:22:49.945Z,14.52
2016-06-16T01:23:49.980Z,14.5
2016-06-16T01:24:49.983Z,14.54
2016-06-16T01:25:50.065Z,14.49
2016-06-16T01:26:50.068Z,14.39
2016-06-16T01:27:50.102Z,14.46
2016-06-16T01:28:50.135Z,14.39
2016-06-16T01:29:50.217Z,14.35
2016-06-16T01:30:50.345Z,14.42
2016-06-16T01:31:50.270Z,14.39
2016-06-16T01:32:50.304Z,14.38
2016-06-16T01:33:50.198Z,14.44
2016-06-16T01:34:50.389Z,14.38
2016-06-16T01:35:50.423Z,14.37
2016-06-16T01:36:50.488Z,14.49
2016-06-16T01:37:50.507Z,14.38
2016-06-16T01:38:50.542Z,14.37
2016-06-16T01:39:50.685Z,14.38
2016-06-16T01:40:50.500Z,14.34
2016-06-16T01:41:50.692Z,14.34
2016-06-16T01:42:50.757Z,14.29
2016-06-16T01:43:50.745Z,14.31
2016-06-16T01:44:50.841Z,14.32
2016-06-16T01:45:50.829Z,14.32
2016-06-16T01:46:50.957Z,14.34
2016-06-16T01:47:50.991Z,14.29
2016-06-16T01:48:50.807Z,14.29
2016-06-16T01:49:50.826Z,14.32
2016-06-16T01:50:51.031Z,14.29
2016-06-16T01:51:51.066Z,14.28
2016-06-16T01:52:51.101Z,14.27
2016-06-16T01:53:51.151Z,14.25
2016-06-16T01:54:51.184Z,14.28
2016-06-16T01:55:51.359Z,14.24
2016-06-16T01:56:51.269Z,14.28
2016-06-16T01:57:51.319Z,14.29
2016-06-16T01:58:51.369Z,14.32
2016-06-16T01:59:51.387Z,14.35
2016-06-16T02:00:51.422Z,14.21
2016-06-16T02:01:51.315Z,14.25
2016-06-16T02:02:51.507Z,14.27
2016-06-16T02:03:51.540Z,14.24
2016-06-16T02:04:51.638Z,14.29
2016-06-16T02:05:51.624Z,14.2
2016-06-16T02:06:51.706Z,14.14
2016-06-16T02:07:51.708Z,14.17
2016-06-16T02:08:51.744Z,14.25
2016-06-16T02:09:51.809Z,14.17
2016-06-16T02:10:52.296Z,14.16
2016-06-16T02:11:51.878Z,14.27
2016-06-16T02:12:51.943Z,14.2
2016-06-16T02:13:51.993Z,14.34
2016-06-16T02:14:51.980Z,14.28
2016-06-16T02:15:52.171Z,14.17
2016-06-16T02:16:51.940Z,14.24
2016-06-16T02:17:52.521Z,14.17
2016-06-16T02:18:52.149Z,14.2
2016-06-16T02:19:52.184Z,14.17
2016-06-16T02:20:52.312Z,14.31
2016-06-16T02:21:52.267Z,14.2
2016-06-16T02:22:52.302Z,14.19
2016-06-16T02:23:52.336Z,14.2
2016-06-16T02:24:52.402Z,14.16
2016-06-16T02:25:52.967Z,14.2
2016-06-16T02:26:53.174Z,14.28
2016-06-16T02:27:52.395Z,14.17
2016-06-16T02:28:52.571Z,14.21
2016-06-16T02:29:52.589Z,14.19
2016-06-16T02:30:52.623Z,14.19
2016-06-16T02:31:52.735Z,14.12
2016-06-16T02:32:52.693Z,14.13
2016-06-16T02:33:52.741Z,14.13
2016-06-16T02:34:52.839Z,14.12
2016-06-16T02:35:52.873Z,14.17
2016-06-16T02:36:52.892Z,14.13
2016-06-16T02:37:52.895Z,14.06
2016-06-16T02:38:52.976Z,14.17
2016-06-16T02:39:53.057Z,14.13
2016-06-16T02:40:53.045Z,14.2
2016-06-16T02:41:53.063Z,14.09
2016-06-16T02:42:53.410Z,14.01
2016-06-16T02:43:53.179Z,14.14
2016-06-16T02:44:53.167Z,14.14
2016-06-16T02:45:53.217Z,14.12
2016-06-16T02:46:53.250Z,14.1
2016-06-16T02:47:53.300Z,14.06
2016-06-16T02:48:53.335Z,14.06
2016-06-16T02:49:53.416Z,14.1
2016-06-16T02:50:53.434Z,14.07
2016-06-16T02:51:53.563Z,14.07
2016-06-16T02:52:53.504Z,14.04
2016-06-16T02:53:53.569Z,14.04
2016-06-16T02:54:53.572Z,14.01
2016-06-16T02:55:53.623Z,14.02
2016-06-16T02:56:53.687Z,14.07
2016-06-16T02:57:53.706Z,13.94
2016-06-16T02:58:53.741Z,13.99
2016-06-16T02:59:53.776Z,13.89
2016-06-16T03:00:53.825Z,13.94
2016-06-16T03:01:53.860Z,13.92
2016-06-16T03:02:53.894Z,13.94
2016-06-16T03:03:53.944Z,13.94
2016-06-16T03:04:53.978Z,13.94
2016-06-16T03:05:54.012Z,13.94
2016-06-16T03:06:54.062Z,13.96
2016-06-16T03:07:54.097Z,13.95
2016-06-16T03:08:54.131Z,13.92
2016-06-16T03:09:54.212Z,13.99
2016-06-16T03:10:54.215Z,14.02
2016-06-16T03:11:54.250Z,13.99
2016-06-16T03:12:54.331Z,13.99
2016-06-16T03:13:54.333Z,13.95
2016-06-16T03:14:54.367Z,13.94
2016-06-16T03:15:54.434Z,13.96
2016-06-16T03:16:54.453Z,13.99
2016-06-16T03:17:54.487Z,13.98
2016-06-16T03:18:54.537Z,14.01
2016-06-16T03:19:54.618Z,13.98
2016-06-16T03:20:54.621Z,13.89
2016-06-16T03:21:54.655Z,13.92
2016-06-16T03:22:54.705Z,14.01
2016-06-16T03:23:54.802Z,13.99
2016-06-16T03:24:54.774Z,13.92
2016-06-16T03:25:54.901Z,13.92
2016-06-16T03:26:54.717Z,13.99
2016-06-16T03:27:54.908Z,13.92
2016-06-16T03:28:54.927Z,14.02
2016-06-16T03:29:54.976Z,13.92
2016-06-16T03:30:55.011Z,14.02
2016-06-16T03:31:55.045Z,14.01
2016-06-16T03:32:55.080Z,13.95
2016-06-16T03:33:55.130Z,13.98
2016-06-16T03:34:55.226Z,14.06
2016-06-16T03:35:55.089Z,13.92
2016-06-16T03:36:55.093Z,14.01
2016-06-16T03:37:55.282Z,13.95
2016-06-16T03:38:55.332Z,14.1
2016-06-16T03:39:55.366Z,13.95
2016-06-16T03:40:55.510Z,13.96
2016-06-16T03:41:55.233Z,13.95
2016-06-16T03:42:55.532Z,13.95
2016-06-16T03:43:55.519Z,13.94
2016-06-16T03:44:55.585Z,14.01
2016-06-16T03:45:55.634Z,13.88
2016-06-16T03:46:55.670Z,14.01
2016-06-16T03:47:55.594Z,13.99
2016-06-16T03:48:55.722Z,14.02
2016-06-16T03:49:55.772Z,13.95
2016-06-16T03:50:55.808Z,13.92
2016-06-16T03:51:55.685Z,13.98
2016-06-16T03:52:55.891Z,14.02
2016-06-16T03:53:55.956Z,13.94
2016-06-16T03:54:55.960Z,13.94
2016-06-16T03:55:56.009Z,13.99
2016-06-16T03:56:56.326Z,13.95
2016-06-16T03:57:56.094Z,14.01
2016-06-16T03:58:56.128Z,14.04
2016-06-16T03:59:56.163Z,13.99
2016-06-16T04:00:56.197Z,14.07
2016-06-16T04:01:56.278Z,14.01
2016-06-16T04:02:56.390Z,14.04
2016-06-16T04:03:56.316Z,14.09
2016-06-16T04:04:56.365Z,14.09
2016-06-16T04:05:56.431Z,14.14
2016-06-16T04:06:56.449Z,14.16
2016-06-16T04:07:56.485Z,14.12
2016-06-16T04:08:56.565Z,14.12
2016-06-16T04:09:56.630Z,14.14
2016-06-16T04:10:56.603Z,14.17
2016-06-16T04:11:56.668Z,14.29
2016-06-16T04:12:56.718Z,14.2
2016-06-16T04:13:56.720Z,14.31
2016-06-16T04:14:56.756Z,14.31
2016-06-16T04:15:56.790Z,14.31
2016-06-16T04:16:56.718Z,14.29
2016-06-16T04:17:56.964Z,14.31
2016-06-16T04:18:56.897Z,14.29
2016-06-16T04:19:57.096Z,14.35
2016-06-16T04:20:57.202Z,14.44
2016-06-16T04:21:57.265Z,14.42
2016-06-16T04:22:57.438Z,14.5
2016-06-16T04:23:57.377Z,14.5
2016-06-16T04:24:57.551Z,14.46
2016-06-16T04:25:57.506Z,14.5
2016-06-16T04:26:58.034Z,14.52
2016-06-16T04:27:57.574Z,14.49
2016-06-16T04:28:57.628Z,14.64
2016-06-16T04:29:57.683Z,14.65
2016-06-16T04:30:57.691Z,14.67
2016-06-16T04:31:57.730Z,14.74
2016-06-16T04:32:57.797Z,14.75
2016-06-16T04:33:57.865Z,14.71
2016-06-16T04:34:57.870Z,14.72
2016-06-16T04:35:57.749Z,14.87
2016-06-16T04:36:58.019Z,14.86
2016-06-16T04:37:58.008Z,14.86
2016-06-16T04:38:58.043Z,14.93
2016-06-16T04:39:58.078Z,14.87
2016-06-16T04:40:58.145Z,14.86
2016-06-16T04:41:58.194Z,14.84
2016-06-16T04:42:58.277Z,14.93
2016-06-16T04:43:58.233Z,14.86
2016-06-16T04:44:58.362Z,14.94
2016-06-16T04:45:58.318Z,14.98
2016-06-16T04:46:58.477Z,14.95
2016-06-16T04:47:58.418Z,15.05
2016-06-16T04:48:58.437Z,15.08
2016-06-16T04:49:58.486Z,15.11
2016-06-16T04:50:58.521Z,15.06
2016-06-16T04:51:58.571Z,15.12
2016-06-16T04:52:58.590Z,15.19
2016-06-16T04:53:58.718Z,15.19
2016-06-16T04:54:58.690Z,15.23
2016-06-16T04:55:58.724Z,15.3
2016-06-16T04:56:58.789Z,15.38
2016-06-16T04:57:58.825Z,15.33
2016-06-16T04:58:58.905Z,15.43
2016-06-16T04:59:58.939Z,15.41
2016-06-16T05:00:59.348Z,15.45
2016-06-16T05:01:58.992Z,15.48
2016-06-16T05:02:59.089Z,15.56
2016-06-16T05:03:59.046Z,15.64
2016-06-16T05:04:59.111Z,15.61
2016-06-16T05:05:59.144Z,15.76
2016-06-16T05:06:59.352Z,15.76
2016-06-16T05:07:59.948Z,15.75
2016-06-16T05:08:59.264Z,15.79
2016-06-16T05:09:59.329Z,15.88
2016-06-16T05:10:59.332Z,15.86
2016-06-16T05:12:00.242Z,15.82
2016-06-16T05:12:59.417Z,15.94
2016-06-16T05:13:59.561Z,15.89
2016-06-16T05:14:59.486Z,15.96
2016-06-16T05:15:59.551Z,15.97
2016-06-16T05:16:59.569Z,16.01
2016-06-16T05:17:59.745Z,15.97
2016-06-16T05:18:59.654Z,16.01
2016-06-16T05:19:59.548Z,16
2016-06-16T05:20:59.754Z,15.97
2016-06-16T05:21:59.804Z,15.99
2016-06-16T05:22:59.822Z,16
2016-06-16T05:23:59.966Z,16
2016-06-16T05:24:59.922Z,16.12
2016-06-16T05:25:59.972Z,16.04
2016-06-16T05:27:00.320Z,16.03
2016-06-16T05:28:00.073Z,16.03
2016-06-16T05:29:00.154Z,16.09
2016-06-16T05:30:00.281Z,16.18
2016-06-16T05:31:00.143Z,16.16
2016-06-16T05:32:00.194Z,16.22
2016-06-16T05:33:04.213Z,16.18
2016-06-16T05:34:00.263Z,16.2
2016-06-16T05:35:01.281Z,16.22
2016-06-16T05:36:00.362Z,16.37
2016-06-16T05:37:00.240Z,16.34
2016-06-16T05:38:01.400Z,16.35
2016-06-16T05:39:00.481Z,16.42
2016-06-16T05:40:00.640Z,16.38
2016-06-16T05:41:01.706Z,16.44
2016-06-16T05:42:01.584Z,16.55
2016-06-16T05:43:00.978Z,16.52
2016-06-16T05:44:01.091Z,16.58
2016-06-16T05:45:01.406Z,16.58
2016-06-16T05:46:01.565Z,16.55
2016-06-16T05:47:01.803Z,16.58
2016-06-16T05:48:00.867Z,16.67
2016-06-16T05:49:01.324Z,16.67
2016-06-16T05:50:01.249Z,16.67
2016-06-16T05:51:01.393Z,16.71
2016-06-16T05:52:01.005Z,16.74
2016-06-16T05:53:01.477Z,16.81
2016-06-16T05:54:01.496Z,16.81
2016-06-16T05:55:01.546Z,16.89
2016-06-16T05:56:01.409Z,16.85
2016-06-16T05:57:02.271Z,16.86
2016-06-16T05:58:01.821Z,16.93
2016-06-16T05:59:01.965Z,16.86
2016-06-16T06:00:02.420Z,16.99
2016-06-16T06:01:01.813Z,16.98
2016-06-16T06:02:01.896Z,16.96
2016-06-16T06:03:01.883Z,17.03
2016-06-16T06:04:02.683Z,16.99
2016-06-16T06:05:01.826Z,17.04
2016-06-16T06:06:01.595Z,17.1
2016-06-16T06:07:01.629Z,17.07
2016-06-16T06:08:01.961Z,17.13
2016-06-16T06:09:01.730Z,17.07
2016-06-16T06:10:01.796Z,17.11
2016-06-16T06:11:01.799Z,17.14
2016-06-16T06:12:02.364Z,17.15
2016-06-16T06:13:01.991Z,17.23
2016-06-16T06:14:02.041Z,17.29
2016-06-16T06:15:01.967Z,17.23
2016-06-16T06:16:02.048Z,17.41
2016-06-16T06:17:02.192Z,17.41
2016-06-16T06:18:02.116Z,17.36
2016-06-16T06:19:02.135Z,17.48
2016-06-16T06:20:02.170Z,17.41
2016-06-16T06:21:02.204Z,17.47
2016-06-16T06:22:02.411Z,17.4
2016-06-16T06:23:02.288Z,17.54
2016-06-16T06:24:03.229Z,17.53
2016-06-16T06:25:02.575Z,17.54
2016-06-16T06:26:02.563Z,17.62
2016-06-16T06:27:02.957Z,17.57
2016-06-16T06:28:02.554Z,17.63
2016-06-16T06:29:02.541Z,17.7
2016-06-16T06:30:02.591Z,17.69
2016-06-16T06:31:02.625Z,17.69
2016-06-16T06:32:02.675Z,17.71
2016-06-16T06:33:02.912Z,17.67
2016-06-16T06:34:02.837Z,17.73
2016-06-16T06:35:02.716Z,17.74
2016-06-16T06:36:02.860Z,17.79
2016-06-16T06:37:02.894Z,17.76
2016-06-16T06:38:02.912Z,17.78
2016-06-16T06:39:02.962Z,17.84
2016-06-16T06:40:03.028Z,17.79
2016-06-16T06:41:03.062Z,17.84
2016-06-16T06:42:03.159Z,17.89
2016-06-16T06:43:03.131Z,17.99
2016-06-16T06:44:03.321Z,17.89
2016-06-16T06:45:03.215Z,17.92
2016-06-16T06:46:03.249Z,18.02
2016-06-16T06:47:03.315Z,18
2016-06-16T06:48:03.349Z,18
2016-06-16T06:49:03.384Z,17.95
2016-06-16T06:50:03.419Z,18.06
2016-06-16T06:51:03.484Z,18.04
2016-06-16T06:52:03.502Z,18
2016-06-16T06:53:03.553Z,18.02
2016-06-16T06:54:03.586Z,18
2016-06-16T06:55:04.465Z,18.1
2016-06-16T06:56:03.983Z,18.07
2016-06-16T06:57:03.565Z,18.17
2016-06-16T06:58:06.630Z,18.18
2016-06-16T06:59:05.414Z,18.15
2016-06-16T07:00:05.042Z,18.24
2016-06-16T07:01:03.873Z,18.22
2016-06-16T07:02:04.064Z,18.24
2016-06-16T07:03:03.990Z,18.24
2016-06-16T07:04:04.008Z,18.33
2016-06-16T07:05:04.073Z,18.42
2016-06-16T07:06:04.217Z,18.42
2016-06-16T07:07:04.189Z,18.47
2016-06-16T07:08:04.177Z,18.5
2016-06-16T07:09:04.570Z,18.57
2016-06-16T07:10:04.292Z,18.58
2016-06-16T07:11:04.373Z,18.64
2016-06-16T07:12:06.861Z,18.65
2016-06-16T07:13:04.957Z,18.7
2016-06-16T07:14:04.476Z,18.68
2016-06-16T07:15:04.557Z,18.77
2016-06-16T07:16:04.983Z,18.83
2016-06-16T07:17:04.564Z,18.91
2016-06-16T07:18:04.583Z,18.92
2016-06-16T07:19:04.632Z,19.02
2016-06-16T07:20:05.151Z,19.1
2016-06-16T07:21:05.576Z,19.11
2016-06-16T07:22:05.954Z,19.24
2016-06-16T07:23:06.129Z,19.24
2016-06-16T07:24:06.335Z,19.32
2016-06-16T07:25:06.261Z,19.24
2016-06-16T07:26:07.669Z,19.29
2016-06-16T07:27:05.078Z,19.32
2016-06-16T07:28:04.706Z,19.36
2016-06-16T07:29:05.725Z,19.28
2016-06-16T07:30:06.635Z,19.39
2016-06-16T07:31:05.137Z,19.36
2016-06-16T07:32:05.203Z,19.36
2016-06-16T07:33:05.222Z,19.42
2016-06-16T07:34:05.866Z,19.43
2016-06-16T07:48:37.677Z,19.55
2016-06-16T07:48:44.193Z,19.78
2016-06-16T07:49:00.365Z,19.87
2016-06-16T07:50:00.243Z,19.78
2016-06-16T07:51:00.433Z,19.9
2016-06-16T07:52:00.405Z,19.83
2016-06-16T07:53:00.548Z,19.86
2016-06-16T07:54:00.567Z,19.9
2016-06-16T07:55:00.602Z,19.88
2016-06-16T07:56:00.699Z,19.98
2016-06-16T07:57:00.874Z,19.95
2016-06-16T07:58:00.735Z,19.95
2016-06-16T07:59:00.816Z,20.05
2016-06-16T08:00:00.852Z,20.03
2016-06-16T08:01:00.870Z,20.05
2016-06-16T08:02:00.920Z,20.03
2016-06-16T08:03:00.798Z,20.03
2016-06-16T08:04:01.036Z,20.16
2016-06-16T08:05:01.195Z,20.21
2016-06-16T08:06:01.229Z,20.16
2016-06-16T08:07:01.249Z,20.18
2016-06-16T08:08:01.174Z,20.18
2016-06-16T08:09:01.208Z,20.13
2016-06-16T08:10:01.633Z,20.3
2016-06-16T08:11:01.464Z,20.3
2016-06-16T08:12:01.325Z,20.42
2016-06-16T08:13:01.407Z,20.49
2016-06-16T08:14:01.129Z,20.47
2016-06-16T08:15:01.459Z,20.58
2016-06-16T08:16:01.557Z,20.61
2016-06-16T08:17:01.560Z,20.58
2016-06-16T08:18:01.610Z,20.69
2016-06-16T08:19:01.989Z,20.77
2016-06-16T08:20:01.678Z,20.72
2016-06-16T08:21:01.775Z,20.74
2016-06-16T08:22:02.217Z,20.86
2016-06-16T08:23:01.859Z,20.81
2016-06-16T08:24:03.035Z,20.89
2016-06-16T08:25:01.740Z,20.89
2016-06-16T08:26:01.962Z,20.87
2016-06-16T08:27:03.684Z,20.93
2016-06-16T08:28:03.500Z,20.89
2016-06-16T08:29:03.066Z,20.98
2016-06-16T08:30:02.600Z,20.95
2016-06-16T08:31:02.447Z,21.01
2016-06-16T08:32:02.231Z,20.96
2016-06-16T08:33:02.406Z,20.9
2016-06-16T08:34:02.612Z,20.87
2016-06-16T08:35:02.397Z,20.84
2016-06-16T08:36:02.541Z,20.87
2016-06-16T08:37:02.419Z,20.93
2016-06-16T08:38:02.499Z,20.89
2016-06-16T08:39:02.550Z,20.95
2016-06-16T08:40:02.647Z,21.01
2016-06-16T08:41:02.728Z,21.02
2016-06-16T08:42:02.653Z,21.05
2016-06-16T08:43:02.813Z,21.13
2016-06-16T08:44:02.785Z,21.09
2016-06-16T08:45:03.272Z,21.16
2016-06-16T08:46:02.978Z,21.19
2016-06-16T08:47:02.872Z,21.19
2016-06-16T08:48:29.893Z,21.5
2016-06-16T08:49:29.943Z,21.56
2016-06-16T08:50:30.025Z,21.63
2016-06-16T08:51:30.043Z,21.69
2016-06-16T08:52:30.077Z,21.72
2016-06-16T08:53:29.972Z,21.82
2016-06-16T08:54:30.256Z,21.94
2016-06-16T08:55:30.103Z,22.07
2016-06-16T08:56:30.120Z,22.2
2016-06-16T08:57:30.296Z,22.27
2016-06-16T08:58:30.361Z,22.29
2016-06-16T08:59:30.537Z,22.44
2016-06-16T09:00:30.321Z,22.46
2016-06-16T09:01:30.480Z,22.56
2016-06-16T09:02:30.655Z,22.6
2016-06-16T09:03:30.564Z,22.64
2016-06-16T09:04:30.614Z,22.68
2016-06-16T09:05:30.712Z,22.67
2016-06-16T09:06:30.745Z,22.75
2016-06-16T09:07:30.748Z,22.84
2016-06-16T09:08:30.642Z,22.86
2016-06-16T09:09:30.693Z,22.96
2016-06-16T09:10:30.914Z,22.97
2016-06-16T09:11:31.199Z,22.99
2016-06-16T09:12:31.060Z,23.01
2016-06-16T09:13:31.455Z,22.92
2016-06-16T09:14:31.676Z,23.12
2016-06-16T09:15:31.133Z,23.08
2016-06-16T09:16:30.995Z,23.19
2016-06-16T09:17:31.201Z,23.27
2016-06-16T09:18:31.392Z,23.24
2016-06-16T09:19:31.255Z,23.24
2016-06-16T09:20:31.507Z,23.24
2016-06-16T09:21:31.980Z,23.24
2016-06-16T09:22:31.513Z,23.27
2016-06-16T09:23:31.469Z,23.38
2016-06-16T09:24:31.567Z,23.38
2016-06-16T09:25:31.445Z,23.42
2016-06-16T09:26:32.401Z,23.47
2016-06-16T09:27:31.685Z,23.47
2016-06-16T09:28:32.032Z,23.58
2016-06-16T09:29:31.629Z,23.76
2016-06-16T09:30:31.835Z,23.76
2016-06-16T09:31:31.994Z,23.76
2016-06-16T09:32:31.888Z,23.86
2016-06-16T09:33:32.267Z,23.9
2016-06-16T09:34:32.487Z,23.92
2016-06-16T09:35:32.023Z,24.1
2016-06-16T09:36:32.526Z,24
2016-06-16T09:37:32.341Z,24.17
2016-06-16T09:38:32.406Z,24.2
2016-06-16T09:39:32.269Z,24.24
2016-06-16T09:40:32.475Z,24.23
2016-06-16T09:41:33.088Z,24.34
2016-06-16T09:42:32.559Z,24.29
2016-06-16T09:43:32.344Z,24.47
2016-06-16T09:44:32.487Z,24.5
2016-06-16T09:45:33.537Z,24.52
2016-06-16T09:46:33.854Z,24.68
2016-06-16T09:47:32.902Z,24.67
2016-06-16T09:48:32.827Z,24.67
2016-06-16T09:49:35.753Z,24.73
2016-06-16T09:50:32.943Z,24.87
2016-06-16T09:51:32.837Z,24.98
2016-06-16T09:52:33.497Z,25.01
2016-06-16T09:53:33.718Z,25.01
2016-06-16T09:54:33.548Z,25.05
2016-06-16T09:55:33.709Z,25.02
2016-06-16T09:56:34.040Z,25.17
2016-06-16T09:57:34.277Z,25.07
2016-06-16T09:58:33.093Z,25.15
2016-06-16T09:59:33.174Z,25.25
2016-06-16T10:00:33.224Z,25.34
2016-06-16T10:01:34.477Z,25.31
2016-06-16T10:02:34.340Z,25.38
2016-06-16T10:03:33.937Z,25.39
2016-06-16T10:04:35.205Z,25.43
2016-06-16T10:05:34.162Z,25.44
2016-06-16T10:06:36.477Z,25.52
2016-06-16T10:07:35.667Z,25.43
2016-06-16T10:08:33.592Z,25.53
2016-06-16T10:09:34.486Z,25.57
2016-06-16T10:10:35.239Z,25.65
2016-06-16T10:11:33.898Z,25.65
2016-06-16T10:12:35.886Z,25.72
2016-06-16T10:13:33.811Z,25.77
2016-06-16T10:14:33.861Z,25.84
2016-06-16T10:15:33.911Z,25.84
2016-06-16T10:16:35.101Z,25.91
2016-06-16T10:17:35.620Z,25.97
2016-06-16T10:18:34.060Z,25.94
2016-06-16T10:19:34.126Z,25.93
2016-06-16T10:20:33.989Z,26.04
2016-06-16T10:21:35.179Z,26.08
2016-06-16T10:22:34.260Z,26.09
2016-06-16T10:23:34.342Z,26.08
2016-06-16T10:24:34.345Z,26.09
2016-06-16T10:25:34.379Z,26.2
2016-06-16T10:26:34.851Z,26.18
2016-06-16T10:27:34.370Z,26.17
2016-06-16T10:28:34.528Z,26.2
2016-06-16T10:29:34.611Z,26.17
2016-06-16T10:30:34.848Z,26.2
2016-06-16T10:31:34.976Z,26.31
2016-06-16T10:32:34.823Z,26.37
2016-06-16T10:33:34.888Z,26.39
2016-06-16T10:34:34.812Z,26.52
2016-06-16T10:35:35.363Z,26.59
2016-06-16T10:36:34.944Z,26.59
2016-06-16T10:37:34.978Z,26.65
2016-06-16T10:38:35.013Z,26.52
2016-06-16T10:39:35.047Z,26.46
2016-06-16T10:40:35.082Z,26.49
2016-06-16T10:41:35.131Z,26.55
2016-06-16T10:42:35.259Z,26.65
2016-06-16T10:43:35.356Z,26.67
2016-06-16T10:44:35.328Z,26.79
2016-06-16T10:45:36.441Z,26.8
2016-06-16T10:46:38.569Z,26.95
2016-06-16T10:47:37.134Z,27.01
2016-06-16T10:48:35.934Z,27.1
2016-06-16T10:49:38.062Z,27.11
2016-06-16T10:50:37.050Z,27.09
2016-06-16T10:51:36.912Z,27.04
2016-06-16T10:52:35.837Z,26.99
2016-06-16T10:53:38.902Z,26.91
2016-06-16T10:54:40.656Z,26.92
2016-06-16T10:55:37.549Z,27.01
2016-06-16T10:56:38.787Z,27.17
2016-06-16T10:59:30.483Z,26.99
2016-06-16T11:00:30.971Z,27.13
2016-06-16T11:01:31.162Z,27.11
2016-06-16T11:02:29.587Z,27.04
2016-06-16T11:03:29.669Z,27.11
2016-06-16T11:04:29.421Z,27.23
2016-06-16T11:07:55.446Z,27.39
2016-06-16T11:09:39.374Z,27.38
2016-06-16T11:09:56.608Z,27.42
2016-06-16T11:10:56.861Z,27.43
2016-06-16T11:11:56.786Z,27.57
2016-06-16T11:13:34.480Z,27.53
2016-06-16T11:13:58.027Z,27.48
2016-06-16T11:14:57.405Z,27.51
2016-06-16T11:15:56.486Z,27.67
2016-06-16T11:16:56.614Z,27.67
2016-06-16T11:17:56.664Z,27.77
2016-06-16T11:18:56.776Z,27.95
2016-06-16T11:19:57.436Z,27.92
2016-06-16T11:20:58.674Z,28.04
2016-06-16T11:21:57.771Z,28.07
2016-06-16T11:22:57.289Z,28.09
2016-06-16T11:23:57.417Z,28.21
2016-06-16T11:24:57.499Z,28.36
2016-06-16T11:25:57.517Z,28.38
2016-06-16T11:26:58.222Z,28.48
2016-06-16T11:27:57.351Z,28.48
2016-06-16T11:28:58.198Z,28.43
2016-06-16T11:29:57.326Z,28.51
2016-06-16T11:30:59.313Z,28.46
2016-06-16T11:31:57.363Z,28.53
2016-06-16T11:32:57.398Z,28.44
2016-06-16T11:33:57.527Z,28.51
2016-06-16T11:34:57.529Z,28.4
2016-06-16T11:35:57.548Z,28.36
2016-06-16T11:36:57.598Z,28.36
2016-06-16T11:37:57.647Z,28.31
2016-06-16T11:38:58.228Z,28.26
2016-06-16T11:39:57.763Z,28.22
2016-06-16T11:40:58.016Z,28.22
2016-06-16T11:41:58.675Z,28.14
2016-06-16T11:42:57.897Z,28.14
2016-06-16T11:43:58.322Z,28.07
2016-06-16T11:44:58.278Z,28.01
2016-06-16T11:45:58.078Z,27.91
2016-06-16T11:46:58.082Z,27.88
2016-06-16T11:47:58.147Z,27.91
2016-06-16T11:48:58.196Z,27.91
2016-06-16T11:49:58.324Z,27.84
2016-06-16T11:50:58.296Z,27.99
2016-06-16T11:51:59.706Z,27.88
2016-06-16T11:52:59.038Z,27.98
2016-06-16T11:53:58.478Z,27.92
2016-06-16T11:54:58.575Z,27.95
2016-06-16T11:55:58.531Z,27.95
2016-06-16T11:56:58.534Z,28.03
2016-06-16T11:57:58.709Z,28.04
2016-06-16T11:58:58.510Z,28.04
2016-06-16T11:59:58.825Z,28.1
2016-06-16T12:00:58.843Z,28.03
2016-06-16T12:01:58.800Z,28.1
2016-06-16T12:02:58.912Z,28.09
2016-06-16T12:03:59.055Z,28.14
2016-06-16T12:04:59.403Z,28.13
2016-06-16T12:05:58.999Z,28.06
2016-06-16T12:06:58.924Z,28.1
2016-06-16T12:07:59.099Z,28.1
2016-06-16T12:08:59.321Z,28.11
2016-06-16T12:09:59.074Z,28.01
2016-06-16T12:10:59.249Z,28.03
2016-06-16T12:11:59.033Z,27.94
2016-06-16T12:12:59.349Z,27.96
2016-06-16T12:13:59.430Z,27.96
2016-06-16T12:14:59.465Z,27.98
2016-06-16T12:15:59.359Z,28.06
2016-06-16T12:16:59.642Z,27.99
2016-06-16T12:17:59.911Z,28.01
2016-06-16T12:18:59.649Z,28.06
2016-06-16T12:19:59.902Z,28.11
2016-06-16T12:20:59.733Z,28.01
2016-06-16T12:21:59.830Z,28.04
2016-06-16T12:22:59.676Z,28.04
2016-06-16T12:23:59.883Z,28.01
2016-06-16T12:24:59.996Z,27.92
2016-06-16T12:25:59.998Z,27.94
2016-06-16T12:27:00.032Z,27.89
2016-06-16T12:28:00.082Z,27.85
2016-06-16T12:29:00.133Z,27.8
2016-06-16T12:30:00.073Z,27.74
2016-06-16T12:31:00.951Z,27.73
2016-06-16T12:32:00.142Z,27.76
2016-06-16T12:33:02.911Z,27.71
2016-06-16T12:34:00.382Z,27.82
2016-06-16T12:35:00.432Z,27.89
2016-06-16T12:36:00.904Z,27.91
2016-06-16T12:37:00.516Z,27.94
2016-06-16T12:38:01.239Z,27.98
2016-06-16T12:39:00.695Z,27.8
2016-06-16T12:40:01.744Z,27.94
2016-06-16T12:41:00.717Z,27.89
2016-06-16T12:42:00.594Z,27.85
2016-06-16T12:43:00.816Z,27.85
2016-06-16T12:44:00.851Z,27.85
2016-06-16T12:45:00.900Z,27.74
2016-06-16T12:46:01.482Z,27.74
2016-06-16T12:47:01.344Z,27.82
2016-06-16T12:48:01.238Z,27.76
2016-06-16T12:49:01.163Z,27.79
2016-06-16T12:50:01.213Z,27.82
2016-06-16T12:51:01.059Z,27.8
2016-06-16T12:52:01.235Z,27.76
2016-06-16T12:53:01.316Z,27.64
2016-06-16T12:58:46.319Z,27.26
2016-06-16T12:59:02.319Z,27.24
2016-06-16T13:00:02.368Z,27.11
2016-06-16T13:01:02.434Z,27.06
2016-06-16T13:02:03.547Z,26.98
2016-06-16T13:03:02.785Z,26.81
2016-06-16T13:04:02.553Z,26.76
2016-06-16T13:05:02.822Z,26.64
2016-06-16T13:06:03.011Z,26.59
2016-06-16T13:07:02.797Z,26.54
2016-06-16T13:08:02.597Z,26.52
2016-06-16T13:09:02.709Z,26.32
2016-06-16T13:10:02.899Z,26.32
2016-06-16T13:11:02.935Z,26.25
2016-06-16T13:12:02.938Z,26.21
2016-06-16T13:13:03.003Z,26.18
2016-06-16T13:14:03.084Z,26.11
2016-06-16T13:15:03.165Z,26.12
2016-06-16T13:16:03.653Z,25.98
2016-06-16T13:17:03.234Z,25.94